createdAt,value
2018-02-19T00:00:27.806Z,5.43
2018-02-19T00:02:56.028Z,5.00
2018-02-19T00:05:23.497Z,4.28
2018-02-19T00:07:50.947Z,4.35
2018-02-19T00:10:18.413Z,4.27
2018-02-19T00:12:45.867Z,5.05
2018-02-19T00:15:13.335Z,4.30
2018-02-19T00:17:40.807Z,4.82
2018-02-19T00:20:09.047Z,5.00
2018-02-19T00:22:36.515Z,4.47
2018-02-19T00:25:03.979Z,4.53
2018-02-19T00:27:31.435Z,5.70
2018-02-19T00:29:58.916Z,5.05
2018-02-19T00:32:27.138Z,4.47
2018-02-19T00:34:54.616Z,4.40
2018-02-19T00:37:22.075Z,4.75
2018-02-19T00:39:49.549Z,4.22
2018-02-19T00:42:16.998Z,4.37
2018-02-19T00:44:44.484Z,4.97
2018-02-19T00:47:12.711Z,5.00
2018-02-19T00:49:40.182Z,4.68
2018-02-19T00:52:07.647Z,4.78
2018-02-19T00:54:35.106Z,4.35
2018-02-19T00:57:02.569Z,4.87
2018-02-19T00:59:30.026Z,4.95
2018-02-19T01:01:57.496Z,4.82
2018-02-19T01:04:24.953Z,4.72
2018-02-19T01:06:52.420Z,4.75
2018-02-19T01:09:19.870Z,5.50
2018-02-19T01:11:47.338Z,5.07
2018-02-19T01:14:15.563Z,5.90
2018-02-19T01:16:43.038Z,5.40
2018-02-19T01:19:10.502Z,5.60
2018-02-19T01:21:37.953Z,5.68
2018-02-19T01:24:05.415Z,5.65
2018-02-19T01:26:32.883Z,5.50
2018-02-19T01:29:00.347Z,5.37
2018-02-19T01:31:27.809Z,5.20
2018-02-19T01:33:55.279Z,4.47
2018-02-19T01:36:23.505Z,5.57
2018-02-19T01:38:50.981Z,5.93
2018-02-19T01:41:18.454Z,5.10
2018-02-19T01:43:45.910Z,4.65
2018-02-19T01:46:14.120Z,5.57
2018-02-19T01:48:41.575Z,5.37
2018-02-19T01:51:09.808Z,5.05
2018-02-19T01:53:37.268Z,5.20
2018-02-19T01:56:04.752Z,4.57
2018-02-19T01:58:32.975Z,5.53
2018-02-19T02:01:00.431Z,5.72
2018-02-19T02:03:27.886Z,5.03
2018-02-19T02:05:55.364Z,4.95
2018-02-19T02:08:22.825Z,5.25
2018-02-19T02:10:50.282Z,5.35
2018-02-19T02:13:17.747Z,5.45
2018-02-19T02:15:45.215Z,5.80
2018-02-19T02:18:12.680Z,5.62
2018-02-19T02:20:40.134Z,5.40
2018-02-19T02:23:07.610Z,5.62
2018-02-19T02:25:35.826Z,5.50
2018-02-19T02:28:03.294Z,6.30
2018-02-19T02:30:30.746Z,4.90
2018-02-19T02:32:58.216Z,6.00
2018-02-19T02:35:25.683Z,5.12
2018-02-19T02:37:53.151Z,4.87
2018-02-19T02:40:20.611Z,6.55
2018-02-19T02:42:48.080Z,6.10
2018-02-19T02:45:15.547Z,5.57
2018-02-19T02:47:49.702Z,5.53
2018-02-19T02:50:17.175Z,5.12
2018-02-19T02:52:44.643Z,5.43
2018-02-19T02:55:12.097Z,5.60
2018-02-19T02:57:39.571Z,5.82
2018-02-19T03:00:07.038Z,6.03
2018-02-19T03:02:34.503Z,5.75
2018-02-19T03:05:02.731Z,5.32
2018-02-19T03:07:30.191Z,5.03
2018-02-19T03:09:57.659Z,5.50
2018-02-19T03:12:25.129Z,5.37
2018-02-19T03:14:52.592Z,5.15
2018-02-19T03:17:20.040Z,4.90
2018-02-19T03:19:47.502Z,5.50
2018-02-19T03:22:14.954Z,5.68
2018-02-19T03:24:42.434Z,6.07
2018-02-19T03:27:09.894Z,5.28
2018-02-19T03:29:37.369Z,5.57
2018-02-19T03:32:05.595Z,5.70
2018-02-19T03:34:33.059Z,5.53
2018-02-19T03:37:00.534Z,5.05
2018-02-19T03:39:27.996Z,5.32
2018-02-19T03:41:55.458Z,5.93
2018-02-19T03:44:22.922Z,6.03
2018-02-19T03:46:51.156Z,5.90
2018-02-19T03:49:18.629Z,5.50
2018-02-19T03:51:46.101Z,5.32
2018-02-19T03:54:13.558Z,6.37
2018-02-19T03:56:41.019Z,5.60
2018-02-19T03:59:08.483Z,5.32
2018-02-19T04:01:35.942Z,5.70
2018-02-19T04:04:03.401Z,5.82
2018-02-19T04:06:31.631Z,5.45
2018-02-19T04:08:59.090Z,5.47
2018-02-19T04:11:26.567Z,6.35
2018-02-19T04:13:54.028Z,5.97
2018-02-19T04:16:21.486Z,5.60
2018-02-19T04:18:48.944Z,5.68
2018-02-19T04:21:16.410Z,5.12
2018-02-19T04:23:43.891Z,5.35
2018-02-19T04:26:12.111Z,5.90
2018-02-19T04:28:39.573Z,5.80
2018-02-19T04:31:07.040Z,5.32
2018-02-19T04:33:34.502Z,5.78
2018-02-19T04:36:01.988Z,4.97
2018-02-19T04:38:29.449Z,5.00
2018-02-19T04:40:56.927Z,5.57
2018-02-19T04:43:25.147Z,5.45
2018-02-19T04:45:54.402Z,5.50
2018-02-19T04:48:22.631Z,5.75
2018-02-19T04:50:50.110Z,6.55
2018-02-19T04:53:17.568Z,6.00
2018-02-19T04:55:45.036Z,6.87
2018-02-19T04:58:12.495Z,6.25
2018-02-19T05:00:40.714Z,5.70
2018-02-19T05:03:08.184Z,6.07
2018-02-19T05:05:35.634Z,5.53
2018-02-19T05:08:03.087Z,6.18
2018-02-19T05:10:30.549Z,6.85
2018-02-19T05:12:58.005Z,6.62
2018-02-19T05:15:25.486Z,6.60
2018-02-19T05:17:52.944Z,7.53
2018-02-19T05:20:20.413Z,6.60
2018-02-19T05:22:47.881Z,7.15
2018-02-19T05:25:15.343Z,5.87
2018-02-19T05:27:42.804Z,6.82
2018-02-19T05:30:11.034Z,5.60
2018-02-19T05:32:38.496Z,5.32
2018-02-19T05:35:05.956Z,5.37
2018-02-19T05:37:33.417Z,5.78
2018-02-19T05:40:00.873Z,5.78
2018-02-19T05:42:28.343Z,5.57
2018-02-19T05:44:55.804Z,5.20
2018-02-19T05:47:23.267Z,5.40
2018-02-19T05:49:50.731Z,6.05
2018-02-19T05:52:18.193Z,5.90
2018-02-19T05:54:45.653Z,6.55
2018-02-19T05:57:13.146Z,5.47
2018-02-19T05:59:40.625Z,5.65
2018-02-19T06:02:08.075Z,5.37
2018-02-19T06:04:35.536Z,6.93
2018-02-19T06:07:03.008Z,6.75
2018-02-19T06:09:30.461Z,6.65
2018-02-19T06:11:57.939Z,7.43
2018-02-19T06:14:25.406Z,6.40
2018-02-19T06:16:52.871Z,5.87
2018-02-19T06:19:20.326Z,6.50
2018-02-19T06:21:47.793Z,6.00
2018-02-19T06:24:16.019Z,6.35
2018-02-19T06:26:43.483Z,5.85
2018-02-19T06:29:10.940Z,6.10
2018-02-19T06:31:39.193Z,7.75
2018-02-19T06:34:06.648Z,7.95
2018-02-19T06:36:34.102Z,7.10
2018-02-19T06:39:01.571Z,8.05
2018-02-19T06:41:29.033Z,8.00
2018-02-19T06:43:56.498Z,6.82
2018-02-19T06:46:23.958Z,6.93
2018-02-19T06:48:51.426Z,7.22
2018-02-19T06:51:18.898Z,8.57
2018-02-19T06:53:46.376Z,8.38
2018-02-19T06:56:13.846Z,8.25
2018-02-19T06:58:42.085Z,6.87
2018-02-19T07:01:09.552Z,7.43
2018-02-19T07:03:37.034Z,7.20
2018-02-19T07:06:05.255Z,6.55
2018-02-19T07:08:32.733Z,7.32
2018-02-19T07:11:00.197Z,6.45
2018-02-19T07:13:27.671Z,7.18
2018-02-19T07:15:55.128Z,6.95
2018-02-19T07:18:22.587Z,7.00
2018-02-19T07:20:50.045Z,7.12
2018-02-19T07:23:18.235Z,7.22
2018-02-19T07:25:45.758Z,7.22
2018-02-19T07:28:13.226Z,7.57
2018-02-19T07:30:40.701Z,7.18
2018-02-19T07:33:08.170Z,7.90
2018-02-19T07:35:36.404Z,7.12
2018-02-19T07:38:03.873Z,6.85
2018-02-19T07:40:31.349Z,7.65
2018-02-19T07:42:58.815Z,7.78
2018-02-19T07:45:27.048Z,7.87
2018-02-19T07:47:54.518Z,7.95
2018-02-19T07:50:22.005Z,7.40
2018-02-19T07:52:50.246Z,6.43
2018-02-19T07:55:17.721Z,7.37
2018-02-19T07:57:45.196Z,8.63
2018-02-19T08:00:12.827Z,9.23
2018-02-19T08:02:40.313Z,8.75
2018-02-19T08:05:08.594Z,8.82
2018-02-19T08:07:36.818Z,9.60
2018-02-19T08:10:04.304Z,9.60
2018-02-19T08:12:31.825Z,9.73
2018-02-19T08:15:00.148Z,9.50
2018-02-19T08:17:27.624Z,9.35
2018-02-19T08:19:55.867Z,9.38
2018-02-19T08:22:23.328Z,9.40
2018-02-19T08:24:50.794Z,9.15
2018-02-19T08:27:18.255Z,8.52
2018-02-19T08:29:45.776Z,8.40
2018-02-19T08:32:13.981Z,9.00
2018-02-19T08:34:41.453Z,8.85
2018-02-19T08:37:08.921Z,8.25
2018-02-19T08:39:37.152Z,7.40
2018-02-19T08:42:04.623Z,8.67
2018-02-19T08:44:32.102Z,9.63
2018-02-19T08:46:59.573Z,11.27
2018-02-19T08:49:27.811Z,11.07
2018-02-19T08:51:55.287Z,10.10
2018-02-19T08:54:22.770Z,11.00
2018-02-19T08:56:51.016Z,12.27
2018-02-19T08:59:18.478Z,11.13
2018-02-19T09:01:45.955Z,13.90
2018-02-19T09:04:13.419Z,12.67
2018-02-19T09:06:40.891Z,12.33
2018-02-19T09:09:09.152Z,12.27
2018-02-19T09:11:36.611Z,12.67
2018-02-19T09:14:04.075Z,12.27
2018-02-19T09:16:32.323Z,11.70
2018-02-19T09:18:59.783Z,12.63
2018-02-19T09:21:27.257Z,12.97
2018-02-19T09:23:54.719Z,12.67
2018-02-19T09:26:22.967Z,12.60
2018-02-19T09:28:50.427Z,12.97
2018-02-19T09:31:17.899Z,12.53
2018-02-19T09:33:45.366Z,13.33
2018-02-19T09:36:12.873Z,12.83
2018-02-19T09:38:41.070Z,13.40
2018-02-19T09:41:08.556Z,12.53
2018-02-19T09:43:36.807Z,11.53
2018-02-19T09:46:04.292Z,13.60
2018-02-19T09:48:31.757Z,12.80
2018-02-19T09:51:00.003Z,12.20
2018-02-19T09:53:27.468Z,12.63
2018-02-19T09:55:54.964Z,11.43
2018-02-19T09:58:23.192Z,11.70
2018-02-19T10:00:50.654Z,12.83
2018-02-19T10:03:18.131Z,16.17
2018-02-19T10:05:45.606Z,14.77
2018-02-19T10:08:13.843Z,14.43
2018-02-19T10:10:41.311Z,15.60
2018-02-19T10:13:08.770Z,15.47
2018-02-19T10:15:36.236Z,15.63
2018-02-19T10:18:03.711Z,14.60
2018-02-19T10:20:31.939Z,15.03
2018-02-19T10:22:59.427Z,15.90
2018-02-19T10:25:26.892Z,16.07
2018-02-19T10:27:54.370Z,15.10
2018-02-19T10:30:22.614Z,15.23
2018-02-19T10:32:50.084Z,14.67
2018-02-19T10:35:17.557Z,15.10
2018-02-19T10:37:45.800Z,16.83
2018-02-19T10:40:13.275Z,15.20
2018-02-19T10:42:40.755Z,14.53
2018-02-19T10:45:08.994Z,14.57
2018-02-19T10:47:36.469Z,15.93
2018-02-19T10:50:03.942Z,14.17
2018-02-19T10:52:32.186Z,15.67
2018-02-19T10:54:59.685Z,14.13
2018-02-19T10:57:27.133Z,13.87
2018-02-19T10:59:55.371Z,13.77
2018-02-19T11:02:22.865Z,14.67
2018-02-19T11:04:51.107Z,14.50
2018-02-19T11:07:18.597Z,16.40
2018-02-19T11:09:46.832Z,15.50
2018-02-19T11:12:14.291Z,17.20
2018-02-19T11:14:41.772Z,15.83
2018-02-19T11:17:09.235Z,14.87
2018-02-19T11:19:36.707Z,15.50
2018-02-19T11:22:04.944Z,15.63
2018-02-19T11:24:32.413Z,16.03
2018-02-19T11:26:59.872Z,18.47
2018-02-19T11:29:27.351Z,16.17
2018-02-19T11:31:54.819Z,16.73
2018-02-19T11:34:23.059Z,15.87
2018-02-19T11:36:50.534Z,17.60
2018-02-19T11:39:18.007Z,17.80
2018-02-19T11:41:46.232Z,21.87
2018-02-19T11:44:13.720Z,20.80
2018-02-19T11:46:41.240Z,17.47
2018-02-19T11:49:08.671Z,17.20
2018-02-19T11:51:36.896Z,17.27
2018-02-19T11:54:04.368Z,16.67
2018-02-19T11:56:41.875Z,21.60
2018-02-19T11:59:09.345Z,20.93
2018-02-19T12:01:37.580Z,18.53
2018-02-19T12:04:05.069Z,16.53
2018-02-19T12:06:33.605Z,18.23
2018-02-19T12:09:01.087Z,20.60
2018-02-19T12:11:28.563Z,18.63
2018-02-19T12:13:56.047Z,20.23
2018-02-19T12:16:34.146Z,18.97
2018-02-19T12:19:02.404Z,16.97
2018-02-19T12:21:29.873Z,18.17
2018-02-19T12:23:58.113Z,19.13
2018-02-19T12:26:25.577Z,16.80
2018-02-19T12:28:53.072Z,17.83
2018-02-19T12:31:21.317Z,16.90
2018-02-19T12:33:48.783Z,17.33
2018-02-19T12:36:16.258Z,18.53
2018-02-19T12:38:44.483Z,17.27
2018-02-19T12:41:11.964Z,18.67
2018-02-19T12:43:56.151Z,17.27
2018-02-19T12:46:25.099Z,17.20
2018-02-19T12:48:52.557Z,20.23
2018-02-19T12:51:20.034Z,18.27
2018-02-19T12:53:47.500Z,18.30
2018-02-19T12:56:14.976Z,17.30
2018-02-19T12:58:43.209Z,20.00
2018-02-19T13:01:10.691Z,17.47
2018-02-19T13:03:38.153Z,18.30
2018-02-19T13:06:06.397Z,19.50
2018-02-19T13:08:33.863Z,18.17
2018-02-19T13:11:01.336Z,17.50
2018-02-19T13:13:28.797Z,18.63
2018-02-19T13:15:56.275Z,19.17
2018-02-19T13:18:24.524Z,21.33
2018-02-19T13:20:51.994Z,19.33
2018-02-19T13:23:19.464Z,18.53
2018-02-19T13:25:47.703Z,17.40
2018-02-19T13:28:15.195Z,21.43
2018-02-19T13:30:43.452Z,22.20
2018-02-19T13:33:24.235Z,18.77
2018-02-19T13:35:51.700Z,17.10
2018-02-19T13:38:19.938Z,20.90
2018-02-19T13:52:22.504Z,19.87
2018-02-19T13:54:49.973Z,18.17
2018-02-19T13:57:17.442Z,21.03
2018-02-19T13:59:45.682Z,21.50
2018-02-19T14:02:13.200Z,19.40
2018-02-19T14:04:40.632Z,17.83
2018-02-19T14:07:08.102Z,16.07
2018-02-19T14:09:36.348Z,15.63
2018-02-19T14:12:03.816Z,15.77
2018-02-19T14:14:31.293Z,18.90
2018-02-19T14:16:59.537Z,19.23
2018-02-19T14:19:26.993Z,17.37
2018-02-19T14:21:54.460Z,19.70
2018-02-19T14:24:21.952Z,21.03
2018-02-19T14:26:50.187Z,19.53
2018-02-19T14:29:17.668Z,17.23
2018-02-19T14:31:45.130Z,14.10
2018-02-19T14:34:12.606Z,14.23
2018-02-19T14:36:40.074Z,13.80
2018-02-19T14:39:07.555Z,15.30
2018-02-19T14:41:35.017Z,16.73
2018-02-19T14:44:02.494Z,14.47
2018-02-19T14:46:29.949Z,13.33
2018-02-19T14:48:57.424Z,13.77
2018-02-19T14:51:24.942Z,14.60
2018-02-19T14:53:53.143Z,13.50
2018-02-19T14:56:20.828Z,15.87
2018-02-19T14:58:48.343Z,17.70
2018-02-19T15:01:15.814Z,17.70
2018-02-19T15:03:43.288Z,15.90
2018-02-19T15:06:10.750Z,15.30
2018-02-19T15:08:41.555Z,14.73
2018-02-19T15:11:09.025Z,16.80
2018-02-19T15:13:36.486Z,16.23
2018-02-19T15:16:04.022Z,14.63
2018-02-19T15:18:39.542Z,16.17
2018-02-19T15:21:07.772Z,16.33
2018-02-19T15:23:35.245Z,16.23
2018-02-19T15:26:02.716Z,15.87
2018-02-19T15:28:30.948Z,15.23
2018-02-19T15:30:58.424Z,17.77
2018-02-19T15:33:25.883Z,14.57
2018-02-19T15:35:53.358Z,13.57
2018-02-19T15:38:20.819Z,16.60
2018-02-19T15:40:48.295Z,16.13
2018-02-19T15:43:16.531Z,16.07
2018-02-19T15:45:44.019Z,14.33
2018-02-19T15:48:12.277Z,15.10
2018-02-19T15:50:39.749Z,14.40
2018-02-19T15:53:07.237Z,14.67
2018-02-19T15:55:35.496Z,14.03
2018-02-19T15:58:03.779Z,13.27
2018-02-19T16:00:31.448Z,13.43
2018-02-19T16:02:58.932Z,11.57
2018-02-19T16:05:26.410Z,13.17
2018-02-19T16:07:53.901Z,15.10
2018-02-19T16:10:21.375Z,14.40
2018-02-19T16:12:48.834Z,13.33
2018-02-19T16:15:17.070Z,13.73
2018-02-19T16:17:44.540Z,13.73
2018-02-19T16:20:12.027Z,13.83
2018-02-19T16:22:39.519Z,13.23
2018-02-19T16:25:06.987Z,13.17
2018-02-19T16:27:34.483Z,12.73
2018-02-19T16:30:01.948Z,13.90
2018-02-19T16:32:30.199Z,12.87
2018-02-19T16:34:57.663Z,13.00
2018-02-19T16:37:25.137Z,13.67
2018-02-19T16:39:53.378Z,13.80
2018-02-19T16:42:20.863Z,13.30
2018-02-19T16:44:48.352Z,13.47
2018-02-19T16:47:15.842Z,12.77
2018-02-19T16:49:43.314Z,12.93
2018-02-19T16:52:10.796Z,13.17
2018-02-19T16:54:38.266Z,12.77
2018-02-19T16:57:06.523Z,14.60
2018-02-19T16:59:33.978Z,13.17
2018-02-19T17:02:01.457Z,13.73
2018-02-19T17:04:29.702Z,12.73
2018-02-19T17:06:57.172Z,14.33
2018-02-19T17:09:37.009Z,14.20
2018-02-19T17:12:04.500Z,13.07
2018-02-19T17:14:32.744Z,13.30
2018-02-19T17:17:06.562Z,14.50
2018-02-19T17:19:39.486Z,12.73
2018-02-19T17:22:11.576Z,13.13
2018-02-19T17:24:39.041Z,13.47
2018-02-19T17:27:06.503Z,13.13
2018-02-19T17:32:33.522Z,12.80
2018-02-19T17:35:10.691Z,13.97
2018-02-19T17:37:38.158Z,13.83
2018-02-19T17:43:16.167Z,12.27
2018-02-19T17:45:43.639Z,12.77
2018-02-19T17:48:11.894Z,13.20
2018-02-19T17:50:39.372Z,14.23
2018-02-19T17:53:06.857Z,14.77
2018-02-19T17:55:37.803Z,13.40
2018-02-19T17:58:05.290Z,14.57
2018-02-19T18:00:36.759Z,14.00
2018-02-19T18:03:04.244Z,14.53
2018-02-19T18:05:32.476Z,14.23
2018-02-19T18:07:59.962Z,15.47
2018-02-19T18:10:27.533Z,16.50
2018-02-19T18:12:55.061Z,17.53
2018-02-19T18:15:22.599Z,18.00
2018-02-19T18:17:50.068Z,17.63
2018-02-19T18:20:17.575Z,17.30
2018-02-19T18:22:45.829Z,18.00
2018-02-19T18:25:13.310Z,16.60
2018-02-19T18:27:41.603Z,15.57
2018-02-19T18:30:09.079Z,14.67
2018-02-19T18:32:36.553Z,13.13
2018-02-19T18:35:04.020Z,13.67
2018-02-19T18:37:31.591Z,13.37
2018-02-19T18:39:59.037Z,13.77
2018-02-19T18:42:26.498Z,14.30
2018-02-19T18:44:53.970Z,14.80
2018-02-19T18:47:21.431Z,15.03
2018-02-19T18:50:01.527Z,13.87
2018-02-19T18:52:32.678Z,14.17
2018-02-19T18:55:00.162Z,15.60
2018-02-19T18:57:27.614Z,14.97
2018-02-19T18:59:55.103Z,14.87
2018-02-19T19:02:22.569Z,14.97
2018-02-19T19:04:50.052Z,14.70
2018-02-19T19:07:30.138Z,13.87
2018-02-19T19:10:09.644Z,16.47
2018-02-19T19:12:41.355Z,16.20
2018-02-19T19:15:08.838Z,15.83
2018-02-19T19:17:36.313Z,17.00
2018-02-19T19:20:04.544Z,14.40
2018-02-19T19:22:32.019Z,14.07
2018-02-19T19:24:59.492Z,15.13
2018-02-19T19:27:27.141Z,13.40
2018-02-19T19:29:54.609Z,12.87
2018-02-19T19:32:22.325Z,13.50
2018-02-19T19:34:49.805Z,13.50
2018-02-19T19:37:17.283Z,14.83
2018-02-19T19:39:44.757Z,14.03
2018-02-19T19:42:12.230Z,13.00
2018-02-19T19:44:40.466Z,14.00
2018-02-19T19:47:07.947Z,16.13
2018-02-19T19:49:35.429Z,15.27
2018-02-19T19:52:02.931Z,15.47
2018-02-19T19:54:30.465Z,15.03
2018-02-19T19:56:57.988Z,14.07
2018-02-19T19:59:26.231Z,15.27
2018-02-19T20:01:53.713Z,14.73
2018-02-19T20:04:21.227Z,14.80
2018-02-19T20:06:48.695Z,16.17
2018-02-19T20:09:16.168Z,15.53
2018-02-19T20:11:43.633Z,14.10
2018-02-19T20:14:11.139Z,13.07
2018-02-19T20:16:38.610Z,13.03
2018-02-19T20:19:06.676Z,12.83
2018-02-19T20:21:34.167Z,14.00
2018-02-19T20:24:01.639Z,14.00
2018-02-19T20:26:29.131Z,13.33
2018-02-19T20:28:56.600Z,15.20
2018-02-19T20:31:24.083Z,15.80
2018-02-19T20:33:51.554Z,16.00
2018-02-19T20:36:19.041Z,16.70
2018-02-19T20:38:46.555Z,16.27
2018-02-19T20:41:14.037Z,16.10
2018-02-19T20:43:41.505Z,15.15
2018-02-19T20:46:08.987Z,16.77
2018-02-19T20:48:37.241Z,15.32
2018-02-19T20:51:04.740Z,15.90
2018-02-19T20:53:32.222Z,14.68
2018-02-19T20:55:59.715Z,16.55
2018-02-19T20:58:27.196Z,18.25
2018-02-19T21:00:55.440Z,14.52
2018-02-19T21:03:22.977Z,13.62
2018-02-19T21:05:50.521Z,16.12
2018-02-19T21:08:18.002Z,18.15
2018-02-19T21:10:45.470Z,17.48
2018-02-19T21:13:12.956Z,15.93
2018-02-19T21:15:41.195Z,14.15
2018-02-19T21:18:08.701Z,15.73
2018-02-19T21:20:36.946Z,17.12
2018-02-19T21:23:04.431Z,15.93
2018-02-19T21:25:32.662Z,16.23
2018-02-19T21:28:00.167Z,16.27
2018-02-19T21:30:28.387Z,16.20
2018-02-19T21:32:55.902Z,16.30
2018-02-19T21:35:24.142Z,13.45
2018-02-19T21:37:51.628Z,14.05
2018-02-19T21:40:19.106Z,15.00
2018-02-19T21:42:46.584Z,15.75
2018-02-19T21:45:14.051Z,14.65
2018-02-19T21:47:41.550Z,12.98
2018-02-19T21:50:09.026Z,13.95
2018-02-19T21:52:37.285Z,14.52
2018-02-19T21:55:04.778Z,15.52
2018-02-19T21:57:33.017Z,15.23
2018-02-19T22:00:07.941Z,13.98
2018-02-19T22:02:35.465Z,13.30
2018-02-19T22:05:03.022Z,13.82
2018-02-19T22:07:30.560Z,14.93
2018-02-19T22:09:58.183Z,14.93
2018-02-19T22:12:26.535Z,14.57
2018-02-19T22:14:54.063Z,14.35
2018-02-19T22:17:21.610Z,15.50
2018-02-19T22:19:49.897Z,14.75
2018-02-19T22:22:17.568Z,14.68
2018-02-19T22:24:45.903Z,14.57
2018-02-19T22:27:13.498Z,13.18
2018-02-19T22:29:41.840Z,13.20
2018-02-19T22:32:09.450Z,12.07
2018-02-19T22:34:37.816Z,14.32
2018-02-19T22:37:06.095Z,13.68
2018-02-19T22:39:34.466Z,13.20
2018-02-19T22:42:02.746Z,14.02
2018-02-19T22:44:30.387Z,13.15
2018-02-19T22:46:57.972Z,13.85
2018-02-19T22:49:26.378Z,14.15
2018-02-19T22:51:53.869Z,14.05
2018-02-19T22:54:21.447Z,14.27
2018-02-19T22:56:48.930Z,15.48
2018-02-19T22:59:17.288Z,15.60
2018-02-19T23:01:44.849Z,16.17
2018-02-19T23:04:12.433Z,15.55
2018-02-19T23:06:40.730Z,15.57
2018-02-19T23:09:08.351Z,14.73
2018-02-19T23:11:35.927Z,14.10
2018-02-19T23:14:04.188Z,13.40
2018-02-19T23:16:32.477Z,13.77
2018-02-19T23:19:00.770Z,13.20
2018-02-19T23:21:28.318Z,12.30
2018-02-19T23:23:56.651Z,14.50
2018-02-19T23:26:24.141Z,12.68
2018-02-19T23:28:51.763Z,13.13
2018-02-19T23:31:19.236Z,11.88
2018-02-19T23:33:46.718Z,14.20
2018-02-19T23:36:14.948Z,14.55
2018-02-19T23:38:42.396Z,13.55
2018-02-19T23:41:09.853Z,13.85
2018-02-19T23:43:37.315Z,13.38
2018-02-19T23:46:04.768Z,14.73
2018-02-19T23:48:32.230Z,14.05
2018-02-19T23:50:59.692Z,13.80
2018-02-19T23:53:27.143Z,14.55
2018-02-19T23:55:54.600Z,12.93
2018-02-19T23:58:22.068Z,12.88
